Time;durP1;ratioP1;P1;durP2;ratioP2;P2;SDS_P1;SDS_P2;PMS_P1;PMS_P2;Temp;Humidity;BMP_temperature;BMP_pressure;BME280_temperature;BME280_humidity;BME280_pressure;Samples;Min_cycle;Max_cycle;Signal;HPM_P1;HPM_P2
2021/05/15 00:01:43;;;;;;;3.30;1.08;;;12.60;72.50;;;;;;5028348;28;20100;-80
2021/05/15 00:04:09;;;;;;;2.42;0.95;;;12.60;72.50;;;;;;5012115;28;20091;-80
2021/05/15 00:06:35;;;;;;;3.75;0.93;;;12.60;72.50;;;;;;5028633;28;20036;-79
2021/05/15 00:09:01;;;;;;;6.68;1.35;;;12.50;72.60;;;;;;5029374;28;20026;-80
2021/05/15 00:11:26;;;;;;;3.47;1.20;;;12.50;72.70;;;;;;5028669;28;20484;-80
2021/05/15 00:13:52;;;;;;;4.95;1.33;;;12.40;72.90;;;;;;5012117;28;20072;-80
2021/05/15 00:16:19;;;;;;;3.50;0.85;;;12.30;73.20;;;;;;5013531;28;20531;-80
2021/05/15 00:18:45;;;;;;;2.15;1.17;;;12.10;73.50;;;;;;5013932;28;20068;-80
2021/05/15 00:21:11;;;;;;;5.50;1.13;;;11.90;74.10;;;;;;5013296;28;20039;-79
2021/05/15 00:23:37;;;;;;;5.03;1.30;;;11.90;74.50;;;;;;5029459;28;20034;-80
2021/05/15 00:26:03;;;;;;;3.67;1.23;;;11.80;74.90;;;;;;5013105;28;20415;-80
2021/05/15 00:28:29;;;;;;;3.80;1.20;;;11.80;75.60;;;;;;5013812;28;20056;-80
2021/05/15 00:30:56;;;;;;;3.85;1.50;;;11.70;75.80;;;;;;5013535;28;20029;-80
2021/05/15 00:33:22;;;;;;;3.55;1.20;;;11.80;76.40;;;;;;5031898;28;20447;-81
2021/05/15 00:35:48;;;;;;;4.68;1.30;;;11.80;76.60;;;;;;5030503;28;20025;-80
2021/05/15 00:38:14;;;;;;;4.80;1.25;;;11.90;76.60;;;;;;5029681;28;20025;-80
2021/05/15 00:40:40;;;;;;;3.90;1.20;;;11.90;76.70;;;;;;5012859;28;20053;-82
2021/05/15 00:43:08;;;;;;;6.30;1.38;;;11.90;77.00;;;;;;5012286;28;20398;-81
2021/05/15 00:45:34;;;;;;;4.18;1.27;;;11.90;77.30;;;;;;5011859;28;20447;-80
2021/05/15 00:48:00;;;;;;;2.55;1.20;;;11.90;77.50;;;;;;5027648;28;20460;-81
2021/05/15 00:50:26;;;;;;;5.63;1.60;;;11.90;77.60;;;;;;5027323;28;20056;-82
2021/05/15 00:52:52;;;;;;;10.50;1.52;;;12.00;77.90;;;;;;5010959;28;20038;-80
2021/05/15 00:55:17;;;;;;;2.80;1.50;;;12.00;78.10;;;;;;5011050;28;20548;-79
2021/05/15 00:57:43;;;;;;;2.80;0.88;;;12.00;78.30;;;;;;5028438;28;20030;-80
2021/05/15 01:00:11;;;;;;;4.13;1.30;;;11.90;78.40;;;;;;5027160;28;20068;-81
2021/05/15 01:02:38;;;;;;;4.55;1.13;;;11.90;78.50;;;;;;5010489;28;20038;-81
2021/05/15 01:05:05;;;;;;;2.85;1.00;;;11.80;78.90;;;;;;5027004;28;20025;-80
2021/05/15 01:07:31;;;;;;;3.22;1.15;;;11.80;79.20;;;;;;5026672;28;20030;-81
2021/05/15 01:09:56;;;;;;;6.63;1.38;;;11.70;79.30;;;;;;5010410;28;20495;-80
2021/05/15 01:12:22;;;;;;;3.78;1.05;;;11.70;79.60;;;;;;5010403;28;20037;-82
2021/05/15 01:14:48;;;;;;;4.20;1.00;;;11.70;79.80;;;;;;5026968;28;20021;-81
2021/05/15 01:17:14;;;;;;;2.40;0.93;;;11.70;80.00;;;;;;5028383;28;20021;-81
2021/05/15 01:19:41;;;;;;;2.00;0.88;;;11.70;80.20;;;;;;5026881;28;20033;-80
2021/05/15 01:22:12;;;;;;;2.40;0.88;;;11.70;80.30;;;;;;5010358;28;20582;-80
2021/05/15 01:24:41;;;;;;;4.53;1.00;;;11.60;80.40;;;;;;5027338;28;20025;-81
2021/05/15 01:27:08;;;;;;;1.23;1.02;;;11.60;80.50;;;;;;5027306;28;20387;-81
2021/05/15 01:29:35;;;;;;;4.22;0.88;;;11.50;80.50;;;;;;4994683;28;20030;-80
2021/05/15 01:32:00;;;;;;;1.17;0.73;;;11.50;80.60;;;;;;5029763;28;20468;-79
2021/05/15 01:34:26;;;;;;;8.57;1.17;;;11.40;80.70;;;;;;4998129;28;20038;-79
2021/05/15 01:36:52;;;;;;;4.43;1.30;;;11.30;81.10;;;;;;5032196;28;20045;-81
2021/05/15 01:39:18;;;;;;;3.33;0.95;;;11.20;81.70;;;;;;5016476;28;20061;-81
2021/05/15 01:41:44;;;;;;;2.17;1.15;;;11.10;82.10;;;;;;5017733;28;20080;-81
2021/05/15 01:44:11;;;;;;;3.08;0.98;;;11.00;82.60;;;;;;5033478;28;20029;-80
2021/05/15 01:46:36;;;;;;;7.32;1.13;;;11.00;83.10;;;;;;5030975;28;20021;-81
2021/05/15 01:49:03;;;;;;;1.45;0.80;;;11.00;83.30;;;;;;5049217;28;20037;-82
2021/05/15 01:51:29;;;;;;;1.33;0.77;;;10.90;83.50;;;;;;5031410;28;20395;-82
2021/05/15 01:53:55;;;;;;;4.47;1.02;;;10.80;83.60;;;;;;5031846;28;20032;-79
2021/05/15 01:56:28;;;;;;;4.20;1.10;;;10.70;83.90;;;;;;5015615;28;20091;-81
2021/05/15 01:58:55;;;;;;;4.90;0.80;;;10.70;84.50;;;;;;5014797;28;20029;-81
2021/05/15 02:01:21;;;;;;;1.60;0.73;;;10.60;84.70;;;;;;5014747;28;20124;-81
2021/05/15 02:03:48;;;;;;;5.03;1.02;;;10.60;85.00;;;;;;5033415;28;20453;-81
2021/05/15 02:06:14;;;;;;;1.83;0.90;;;10.60;85.50;;;;;;5031678;28;20125;-80
2021/05/15 02:08:45;;;;;;;2.10;0.70;;;10.60;85.60;;;;;;5016062;28;20378;-80
2021/05/15 02:11:13;;;;;;;1.80;0.65;;;10.60;85.90;;;;;;5017881;28;20491;-83
2021/05/15 02:13:38;;;;;;;0.90;0.68;;;10.60;85.90;;;;;;5050962;28;20033;-80
2021/05/15 02:16:05;;;;;;;1.17;0.80;;;10.50;85.90;;;;;;5032244;28;20488;-81
2021/05/15 02:18:31;;;;;;;2.05;0.50;;;10.50;86.20;;;;;;5017864;28;20060;-80
2021/05/15 02:20:57;;;;;;;2.55;0.60;;;10.50;86.40;;;;;;5036404;28;20033;-81
2021/05/15 02:23:24;;;;;;;2.70;0.90;;;10.50;86.90;;;;;;5020394;28;20127;-82
2021/05/15 02:25:52;;;;;;;1.77;0.95;;;10.50;87.00;;;;;;5037626;28;20486;-80
2021/05/15 02:28:18;;;;;;;1.52;0.68;;;10.60;87.40;;;;;;5037064;28;20429;-81
2021/05/15 02:30:44;;;;;;;3.47;0.75;;;10.60;87.40;;;;;;5003199;28;20112;-79
2021/05/15 02:33:10;;;;;;;0.70;0.50;;;10.60;87.60;;;;;;5018682;28;20032;-81
2021/05/15 02:35:36;;;;;;;2.28;0.40;;;10.60;87.60;;;;;;5035485;28;20033;-82
2021/05/15 02:38:05;;;;;;;2.35;0.65;;;10.60;87.60;;;;;;5018374;28;20453;-81
2021/05/15 02:40:31;;;;;;;0.68;0.55;;;10.70;87.70;;;;;;5033966;28;20587;-81
2021/05/15 02:42:57;;;;;;;0.43;0.40;;;10.60;87.70;;;;;;5017916;28;20033;-80
2021/05/15 02:45:24;;;;;;;2.33;0.43;;;10.60;88.00;;;;;;5018220;28;20033;-80
2021/05/15 02:47:53;;;;;;;0.95;0.47;;;10.60;88.10;;;;;;5019381;28;20463;-81
2021/05/15 02:50:19;;;;;;;0.20;0.20;;;10.60;88.10;;;;;;5053853;28;20035;-80
2021/05/15 02:52:45;;;;;;;0.30;0.30;;;10.60;88.00;;;;;;5019330;28;20029;-80
2021/05/15 02:55:14;;;;;;;0.20;0.20;;;10.60;88.10;;;;;;5019375;28;20558;-80
2021/05/15 02:57:40;;;;;;;1.00;0.40;;;10.70;88.40;;;;;;5035945;28;20029;-81
2021/05/15 03:00:08;;;;;;;0.68;0.40;;;10.70;88.90;;;;;;5036055;28;20123;-81
2021/05/15 03:02:34;;;;;;;1.38;0.50;;;10.70;89.20;;;;;;5019192;28;20033;-82
2021/05/15 03:05:01;;;;;;;0.60;0.50;;;10.80;89.50;;;;;;5019430;28;20379;-81
2021/05/15 03:07:27;;;;;;;0.60;0.40;;;10.90;89.80;;;;;;5054730;28;20029;-81
2021/05/15 03:09:53;;;;;;;0.70;0.50;;;11.00;90.00;;;;;;5003792;28;20387;-82
2021/05/15 03:12:18;;;;;;;0.73;0.50;;;11.10;90.00;;;;;;5019593;28;20036;-82
2021/05/15 03:14:44;;;;;;;1.10;0.63;;;11.10;90.00;;;;;;5002928;28;20036;-82
2021/05/15 03:17:11;;;;;;;0.32;0.30;;;11.10;89.90;;;;;;5002196;28;20036;-82
2021/05/15 03:19:37;;;;;;;0.40;0.40;;;11.10;89.70;;;;;;5033828;28;20108;-81
2021/05/15 03:22:03;;;;;;;1.25;0.43;;;11.10;89.50;;;;;;5016926;28;20153;-83
2021/05/15 03:24:30;;;;;;;0.55;0.40;;;11.10;89.60;;;;;;5017214;28;20029;-81
2021/05/15 03:26:56;;;;;;;0.93;0.40;;;11.00;89.80;;;;;;5033583;28;20040;-83
2021/05/15 03:29:21;;;;;;;1.35;0.40;;;11.00;89.80;;;;;;5033712;28;20039;-81
2021/05/15 03:31:47;;;;;;;0.75;0.40;;;11.00;89.70;;;;;;5051400;28;20100;-81
2021/05/15 03:34:13;;;;;;;0.65;0.38;;;10.90;89.70;;;;;;5051555;28;20025;-81
2021/05/15 03:36:38;;;;;;;1.27;0.77;;;10.80;89.60;;;;;;5017428;28;20450;-81
2021/05/15 03:39:05;;;;;;;2.97;0.57;;;10.80;89.70;;;;;;5017252;28;20033;-80
2021/05/15 03:41:31;;;;;;;1.02;0.28;;;10.80;89.90;;;;;;5033910;28;20501;-81
2021/05/15 03:43:57;;;;;;;0.95;0.28;;;10.70;90.00;;;;;;5018536;28;20029;-81
2021/05/15 03:46:22;;;;;;;0.70;0.20;;;10.70;90.00;;;;;;5017433;28;20029;-82
2021/05/15 03:48:48;;;;;;;0.82;0.28;;;10.60;90.00;;;;;;5017868;28;20025;-82
2021/05/15 03:51:15;;;;;;;0.20;0.20;;;10.70;90.10;;;;;;5017290;28;20037;-83
2021/05/15 03:53:41;;;;;;;0.40;0.40;;;10.60;90.10;;;;;;5034106;28;20032;-80
2021/05/15 03:56:06;;;;;;;1.02;0.20;;;10.60;90.10;;;;;;5034979;28;20486;-80
2021/05/15 03:58:32;;;;;;;0.20;0.20;;;10.60;90.10;;;;;;5034685;28;20036;-83
2021/05/15 04:00:58;;;;;;;1.15;0.30;;;10.60;90.10;;;;;;5018198;28;20029;-80
2021/05/15 04:03:24;;;;;;;1.58;0.38;;;10.60;90.20;;;;;;5001777;28;20441;-80
2021/05/15 04:05:50;;;;;;;0.57;0.30;;;10.60;90.20;;;;;;5019411;28;20025;-82
2021/05/15 04:08:16;;;;;;;1.20;0.30;;;10.60;90.30;;;;;;5035563;28;20025;-82
2021/05/15 04:10:42;;;;;;;0.20;0.20;;;10.60;90.30;;;;;;5019113;28;20454;-80
2021/05/15 04:15:55;;;;;;;0.77;0.40;;;10.60;90.60;;;;;;5037141;28;20479;-83
2021/05/15 04:18:21;;;;;;;0.75;0.40;;;10.60;90.70;;;;;;5021198;28;20040;-80
2021/05/15 04:20:47;;;;;;;1.48;0.65;;;10.50;90.70;;;;;;5018220;28;20040;-80
2021/05/15 04:23:13;;;;;;;0.20;0.20;;;10.50;90.90;;;;;;5018660;28;20070;-81
2021/05/15 04:25:40;;;;;;;0.45;0.38;;;10.50;90.90;;;;;;5018095;28;20065;-80
2021/05/15 04:28:07;;;;;;;0.85;0.50;;;10.60;91.00;;;;;;5035291;28;20535;-82
2021/05/15 04:30:33;;;;;;;2.28;0.50;;;10.60;91.10;;;;;;5018630;28;20037;-81
2021/05/15 04:33:00;;;;;;;0.82;0.50;;;10.60;91.10;;;;;;5017861;28;20419;-81
2021/05/15 04:35:27;;;;;;;3.58;0.60;;;10.60;91.20;;;;;;5034964;28;20033;-82
2021/05/15 04:37:53;;;;;;;1.65;0.55;;;10.60;91.30;;;;;;5002206;28;20043;-81
2021/05/15 04:40:19;;;;;;;1.40;0.77;;;10.60;91.50;;;;;;5017872;28;20049;-81
2021/05/15 04:42:45;;;;;;;0.75;0.52;;;10.60;91.60;;;;;;5033034;28;20086;-80
2021/05/15 04:45:13;;;;;;;4.55;0.60;;;10.60;91.70;;;;;;5034822;28;20036;-82
2021/05/15 04:47:39;;;;;;;2.85;0.63;;;10.60;91.70;;;;;;5034745;28;20435;-80
2021/05/15 04:50:08;;;;;;;3.40;0.50;;;10.60;91.70;;;;;;5051312;28;20100;-82
2021/05/15 04:52:34;;;;;;;2.15;0.52;;;10.60;91.90;;;;;;5031612;28;20025;-81
2021/05/15 04:54:59;;;;;;;2.38;0.70;;;10.60;91.90;;;;;;5016007;28;20082;-82
2021/05/15 04:57:25;;;;;;;1.33;0.50;;;10.60;92.00;;;;;;5000116;28;20053;-81
2021/05/15 04:59:51;;;;;;;4.10;0.70;;;10.60;92.10;;;;;;5032062;28;20047;-81
2021/05/15 05:02:17;;;;;;;3.83;1.05;;;10.60;92.20;;;;;;4999510;28;20033;-82
2021/05/15 05:04:42;;;;;;;1.38;0.55;;;10.60;92.30;;;;;;4999736;28;20049;-80
2021/05/15 05:07:08;;;;;;;0.70;0.60;;;10.60;92.30;;;;;;5049592;28;20018;-81
2021/05/15 05:09:34;;;;;;;2.72;0.73;;;10.60;92.30;;;;;;5049194;28;20036;-83
2021/05/15 05:12:00;;;;;;;3.42;0.75;;;10.70;92.40;;;;;;5016262;28;20107;-81
2021/05/15 05:14:26;;;;;;;0.77;0.57;;;10.60;92.40;;;;;;5034171;28;20028;-80
2021/05/15 05:16:55;;;;;;;2.28;0.43;;;10.70;92.50;;;;;;5035213;28;20442;-80
2021/05/15 05:19:25;;;;;;;0.47;0.38;;;10.70;92.50;;;;;;5019983;28;20466;-82
2021/05/15 05:21:52;;;;;;;0.90;0.50;;;10.70;92.60;;;;;;5054231;28;20074;-81
2021/05/15 05:24:18;;;;;;;0.75;0.50;;;10.70;92.60;;;;;;5035137;28;20017;-82
2021/05/15 05:26:44;;;;;;;3.05;1.05;;;10.70;92.70;;;;;;5034232;28;20390;-82
2021/05/15 05:29:11;;;;;;;1.88;0.52;;;10.70;92.70;;;;;;5032152;28;20017;-83
2021/05/15 05:31:39;;;;;;;3.35;0.60;;;10.80;92.80;;;;;;5021163;28;20033;-80
2021/05/15 05:34:06;;;;;;;0.98;0.73;;;10.80;92.70;;;;;;5054485;28;20030;-82
2021/05/15 05:36:33;;;;;;;1.27;0.40;;;10.80;92.70;;;;;;5035468;28;20116;-82
2021/05/15 05:38:59;;;;;;;2.95;0.65;;;10.80;92.60;;;;;;5018936;28;20442;-81
2021/05/15 05:41:25;;;;;;;3.72;0.70;;;10.80;92.60;;;;;;5038151;28;20025;-81
2021/05/15 05:43:54;;;;;;;3.58;0.50;;;10.80;92.60;;;;;;5019979;28;20523;-80
2021/05/15 05:46:20;;;;;;;1.02;0.57;;;10.80;92.70;;;;;;5035128;28;20051;-82
2021/05/15 05:48:49;;;;;;;4.20;0.60;;;10.90;92.70;;;;;;5018271;28;20441;-80
2021/05/15 05:51:15;;;;;;;0.70;0.20;;;10.90;92.60;;;;;;5036387;28;20053;-80
2021/05/15 05:53:41;;;;;;;1.27;0.60;;;10.90;92.60;;;;;;5019351;28;20278;-81
2021/05/15 05:56:07;;;;;;;9.20;0.70;;;10.90;92.60;;;;;;5008202;28;20047;-80
2021/05/15 05:58:33;;;;;;;0.98;0.60;;;10.90;92.70;;;;;;5061895;28;20029;-81
2021/05/15 06:00:59;;;;;;;0.45;0.38;;;11.00;92.70;;;;;;5040744;28;20394;-80
2021/05/15 06:03:24;;;;;;;1.58;0.60;;;11.10;92.80;;;;;;5059989;28;20079;-80
2021/05/15 06:05:50;;;;;;;6.13;1.05;;;11.10;92.80;;;;;;5024668;28;20055;-80
2021/05/15 06:08:16;;;;;;;2.25;0.63;;;11.10;92.80;;;;;;5023935;28;20025;-81
2021/05/15 06:10:42;;;;;;;2.53;1.30;;;11.20;92.90;;;;;;5040200;28;20025;-81
2021/05/15 06:13:10;;;;;;;4.15;0.90;;;11.30;92.90;;;;;;5041450;28;20451;-82
2021/05/15 06:15:37;;;;;;;1.10;0.52;;;11.40;92.90;;;;;;5024764;28;20059;-81
2021/05/15 06:18:03;;;;;;;0.85;0.60;;;11.40;92.90;;;;;;5040586;28;20474;-81
2021/05/15 06:20:29;;;;;;;4.47;0.70;;;11.40;92.90;;;;;;5040460;28;20028;-80
2021/05/15 06:22:55;;;;;;;2.38;0.55;;;11.40;92.90;;;;;;5023503;28;20491;-81
2021/05/15 06:25:21;;;;;;;1.95;0.70;;;11.30;93.00;;;;;;5019640;28;20035;-81
2021/05/15 06:27:47;;;;;;;1.42;0.70;;;11.30;93.00;;;;;;5035302;28;20383;-81
2021/05/15 06:30:13;;;;;;;2.33;0.70;;;11.40;93.00;;;;;;5018929;28;20020;-81
2021/05/15 06:32:39;;;;;;;3.50;0.70;;;11.40;93.10;;;;;;5036592;28;20361;-81
2021/05/15 06:35:05;;;;;;;2.58;0.75;;;11.40;93.10;;;;;;5022636;28;20094;-81
2021/05/15 06:37:31;;;;;;;1.63;0.70;;;11.40;93.30;;;;;;5021135;28;20394;-82
2021/05/15 06:39:56;;;;;;;2.58;0.68;;;11.30;93.20;;;;;;5020626;28;20087;-80
2021/05/15 06:42:22;;;;;;;2.13;0.70;;;11.20;93.30;;;;;;5020880;28;20029;-82
2021/05/15 06:44:49;;;;;;;2.00;0.77;;;11.20;93.50;;;;;;5021988;28;20123;-80
2021/05/15 06:47:17;;;;;;;0.93;0.68;;;11.20;93.60;;;;;;5037630;28;20021;-78
2021/05/15 06:49:43;;;;;;;5.10;0.80;;;11.10;93.70;;;;;;5052579;28;20013;-81
2021/05/15 06:52:09;;;;;;;5.97;0.90;;;11.10;93.90;;;;;;5003780;28;20479;-80
2021/05/15 06:54:35;;;;;;;3.22;0.93;;;11.10;94.00;;;;;;5036689;28;20033;-82
2021/05/15 06:57:00;;;;;;;5.88;1.08;;;11.10;94.10;;;;;;5004794;28;20040;-81
2021/05/15 06:59:26;;;;;;;2.45;0.80;;;11.10;94.10;;;;;;5021731;28;20032;-81
2021/05/15 07:01:52;;;;;;;5.63;0.80;;;11.10;94.10;;;;;;5005434;28;20033;-82
2021/05/15 07:04:17;;;;;;;2.55;0.80;;;11.10;94.20;;;;;;5037919;28;20459;-80
2021/05/15 07:06:44;;;;;;;1.70;0.73;;;11.20;94.20;;;;;;5038825;28;20039;-81
2021/05/15 07:09:10;;;;;;;11.18;1.00;;;11.20;94.20;;;;;;5019859;28;20029;-69
2021/05/15 07:11:36;;;;;;;1.80;0.93;;;11.20;94.20;;;;;;5056208;28;20036;-81
2021/05/15 07:14:02;;;;;;;1.38;1.00;;;11.30;94.20;;;;;;5037979;28;20075;-81
2021/05/15 07:16:28;;;;;;;5.35;0.98;;;11.30;94.20;;;;;;5036935;28;20387;-80
2021/05/15 07:18:53;;;;;;;4.10;0.93;;;11.20;94.30;;;;;;5018901;28;20090;-81
2021/05/15 07:21:19;;;;;;;1.13;0.73;;;11.20;94.20;;;;;;5001184;28;20482;-82
2021/05/15 07:23:45;;;;;;;3.40;0.88;;;11.20;94.20;;;;;;5016664;28;20033;-79
2021/05/15 07:26:11;;;;;;;6.00;1.10;;;11.10;94.30;;;;;;5052170;28;20387;-79
2021/05/15 07:28:38;;;;;;;2.58;0.90;;;11.00;94.50;;;;;;5032684;28;20021;-78
2021/05/15 07:31:04;;;;;;;9.65;1.20;;;11.00;94.80;;;;;;5051352;28;20028;-79
2021/05/15 07:33:29;;;;;;;3.63;0.80;;;11.00;94.90;;;;;;5034742;28;20451;-78
2021/05/15 07:35:55;;;;;;;6.90;1.08;;;10.90;94.90;;;;;;5034814;28;20060;-80
2021/05/15 07:38:22;;;;;;;2.88;1.00;;;10.80;95.10;;;;;;5033658;28;20033;-80
2021/05/15 07:40:49;;;;;;;7.68;1.45;;;10.80;95.20;;;;;;5034045;28;20098;-79
2021/05/15 07:43:22;;;;;;;14.05;1.40;;;10.80;95.40;;;;;;5034214;28;20029;-78
2021/05/15 07:45:48;;;;;;;4.60;1.25;;;10.90;95.40;;;;;;5018544;28;20475;-80
2021/05/15 07:48:13;;;;;;;5.50;1.80;;;10.90;95.40;;;;;;5052069;28;20025;-78
2021/05/15 07:50:39;;;;;;;8.02;1.73;;;10.90;95.40;;;;;;5016691;28;20095;-81
2021/05/15 07:53:05;;;;;;;4.03;2.00;;;11.00;95.60;;;;;;5033990;28;20037;-79
2021/05/15 07:55:30;;;;;;;8.23;1.77;;;11.00;95.70;;;;;;5016439;28;20029;-81
2021/05/15 07:57:56;;;;;;;4.35;1.40;;;11.10;95.80;;;;;;5031883;28;20029;-79
2021/05/15 08:00:22;;;;;;;8.32;1.75;;;11.10;95.90;;;;;;5015457;28;20033;-81
2021/05/15 08:02:48;;;;;;;2.33;1.33;;;11.10;96.00;;;;;;5015061;28;20072;-79
2021/05/15 08:05:13;;;;;;;7.22;1.55;;;11.10;96.00;;;;;;4999194;28;20516;-78
2021/05/15 08:07:40;;;;;;;5.97;1.48;;;11.10;96.00;;;;;;5031502;28;20145;-82
2021/05/15 08:10:07;;;;;;;4.60;1.20;;;11.10;96.10;;;;;;5050025;28;20044;-79
2021/05/15 08:12:34;;;;;;;3.78;1.35;;;11.20;96.40;;;;;;5049724;28;20029;-77
2021/05/15 08:15:00;;;;;;;11.52;1.70;;;11.20;96.60;;;;;;5033419;28;20121;-79
2021/05/15 08:17:27;;;;;;;7.15;1.60;;;11.40;96.80;;;;;;5031651;28;20124;-79
2021/05/15 08:19:53;;;;;;;5.18;1.50;;;11.50;96.80;;;;;;5032953;28;20479;-79
2021/05/15 08:22:18;;;;;;;4.05;1.63;;;11.70;96.80;;;;;;5032634;28;20071;-78
2021/05/15 08:24:44;;;;;;;2.42;1.50;;;11.80;96.80;;;;;;5016379;28;20025;-78
2021/05/15 08:27:10;;;;;;;6.05;1.35;;;11.80;96.60;;;;;;5016645;28;20394;-78
2021/05/15 08:29:36;;;;;;;2.88;1.30;;;11.80;96.60;;;;;;5050875;28;20574;-78
2021/05/15 08:32:02;;;;;;;1.92;1.00;;;11.80;96.60;;;;;;5015716;28;20037;-77
2021/05/15 08:34:27;;;;;;;5.15;1.10;;;11.80;96.70;;;;;;5050351;28;20037;-78
2021/05/15 08:36:54;;;;;;;1.10;0.85;;;11.70;96.70;;;;;;4999723;28;20036;-77
2021/05/15 08:39:19;;;;;;;3.97;1.10;;;11.70;96.70;;;;;;5050955;28;20122;-79
2021/05/15 08:41:45;;;;;;;4.47;1.10;;;11.60;96.80;;;;;;5033971;28;20475;-79
2021/05/15 08:44:13;;;;;;;2.92;1.10;;;11.60;96.90;;;;;;5034013;28;20037;-79
2021/05/15 08:46:41;;;;;;;1.60;0.88;;;11.60;96.90;;;;;;5051072;28;20111;-80
2021/05/15 08:49:08;;;;;;;2.35;1.15;;;11.60;96.90;;;;;;5033228;28;20056;-80
2021/05/15 08:51:35;;;;;;;7.50;1.50;;;11.70;96.80;;;;;;5050602;28;20024;-79
2021/05/15 08:54:01;;;;;;;7.00;1.48;;;11.60;96.90;;;;;;5000387;28;20032;-80
2021/05/15 08:56:28;;;;;;;2.70;1.42;;;11.60;96.90;;;;;;5016768;28;20403;-80
2021/05/15 08:58:55;;;;;;;10.05;1.48;;;11.60;97.00;;;;;;5033979;28;20092;-79
2021/05/15 09:01:21;;;;;;;1.95;1.15;;;11.60;97.00;;;;;;5051660;28;20024;-79
2021/05/15 09:03:47;;;;;;;4.55;1.42;;;11.60;97.10;;;;;;5033071;28;20040;-79
2021/05/15 09:06:14;;;;;;;6.47;1.13;;;11.60;97.30;;;;;;5016701;28;20049;-78
2021/05/15 09:08:39;;;;;;;1.50;1.10;;;11.60;97.20;;;;;;5015667;28;20025;-81
2021/05/15 09:11:05;;;;;;;3.08;0.90;;;11.60;97.40;;;;;;5015986;28;20052;-79
2021/05/15 09:13:31;;;;;;;1.58;1.00;;;11.60;97.30;;;;;;5034477;28;20397;-79
2021/05/15 09:16:04;;;;;;;5.90;1.20;;;11.60;97.30;;;;;;5051948;28;20029;-80
2021/05/15 09:18:37;;;;;;;3.78;1.00;;;11.60;97.50;;;;;;5032880;28;20033;-80
2021/05/15 09:21:06;;;;;;;2.42;0.90;;;11.60;97.50;;;;;;5032807;28;20120;-80
2021/05/15 09:23:37;;;;;;;2.45;1.20;;;11.60;97.60;;;;;;5033938;28;20483;-80
2021/05/15 09:26:08;;;;;;;4.63;1.08;;;11.50;97.70;;;;;;5052468;28;20075;-79
2021/05/15 09:28:47;;;;;;;6.68;1.00;;;11.50;97.90;;;;;;5034034;28;20430;-79
2021/05/15 09:31:13;;;;;;;1.67;0.93;;;11.60;98.10;;;;;;5034633;28;20025;-78
2021/05/15 09:33:39;;;;;;;7.25;0.90;;;11.70;98.00;;;;;;5033771;28;20505;-76
2021/05/15 09:36:15;;;;;;;3.65;1.17;;;11.80;98.00;;;;;;5032866;28;20426;-79
2021/05/15 09:38:41;;;;;;;5.47;1.30;;;12.00;98.40;;;;;;5033629;28;20021;-80
2021/05/15 09:41:07;;;;;;;5.13;1.20;;;12.30;98.40;;;;;;5030743;28;20053;-81
2021/05/15 09:43:33;;;;;;;254.52;15.82;;;12.50;98.80;;;;;;5014873;28;20044;-79
2021/05/15 09:45:58;;;;;;;5.13;1.25;;;13.10;99.40;;;;;;5014238;28;20032;-79
2021/05/15 09:48:36;;;;;;;11.43;1.73;;;13.80;99.30;;;;;;5014557;28;20396;-80
2021/05/15 09:51:17;;;;;;;10.52;1.80;;;14.20;99.20;;;;;;5015783;28;20061;-79
2021/05/15 09:53:43;;;;;;;2.80;1.13;;;14.40;99.20;;;;;;5029923;28;20030;-80
2021/05/15 09:56:09;;;;;;;2.20;0.80;;;14.80;99.20;;;;;;5029405;28;20472;-79
2021/05/15 09:58:36;;;;;;;2.83;1.00;;;15.00;99.00;;;;;;5012280;28;20083;-78
2021/05/15 10:01:03;;;;;;;5.20;1.10;;;15.00;98.10;;;;;;5028315;28;20029;-79
2021/05/15 10:03:31;;;;;;;1.83;0.80;;;14.90;98.00;;;;;;5012141;28;20037;-79
2021/05/15 10:06:02;;;;;;;1.77;0.88;;;14.70;97.80;;;;;;5028778;28;20017;-78
2021/05/15 10:08:29;;;;;;;2.50;1.00;;;14.60;97.80;;;;;;5028776;28;20029;-81
2021/05/15 10:10:56;;;;;;;6.30;1.30;;;14.50;97.60;;;;;;5028457;28;20022;-77
2021/05/15 10:13:21;;;;;;;4.63;0.80;;;14.30;97.40;;;;;;5029466;28;20099;-80
2021/05/15 10:15:48;;;;;;;4.13;0.95;;;14.20;97.60;;;;;;5028533;28;20467;-79
2021/05/15 10:18:14;;;;;;;1.38;0.70;;;14.10;97.50;;;;;;4996730;28;20057;-81
2021/05/15 10:20:41;;;;;;;2.22;0.88;;;14.10;97.50;;;;;;5011852;28;20033;-80
2021/05/15 10:23:24;;;;;;;4.57;1.10;;;14.10;97.40;;;;;;5012092;28;20065;-80
2021/05/15 10:26:09;;;;;;;2.40;0.98;;;14.10;97.50;;;;;;5028459;28;20067;-81
2021/05/15 10:28:37;;;;;;;4.95;1.98;;;14.10;97.30;;;;;;5029129;28;20108;-80
2021/05/15 10:31:16;;;;;;;4.00;0.98;;;14.10;97.30;;;;;;5028195;28;20022;-79
2021/05/15 10:33:44;;;;;;;7.70;1.50;;;14.00;97.60;;;;;;5028846;28;20025;-79
2021/05/15 10:36:24;;;;;;;2.97;1.10;;;14.10;97.80;;;;;;5029205;28;20527;-82
2021/05/15 10:38:54;;;;;;;5.55;0.90;;;14.20;97.90;;;;;;5029996;28;20036;-81
2021/05/15 10:41:27;;;;;;;3.20;0.80;;;14.40;97.60;;;;;;5031907;28;20046;-80
2021/05/15 10:43:55;;;;;;;5.00;1.08;;;14.50;97.20;;;;;;5033101;28;20041;-81
2021/05/15 10:46:29;;;;;;;6.78;1.15;;;14.60;97.00;;;;;;5016542;28;20036;-81
2021/05/15 10:48:55;;;;;;;6.72;1.10;;;14.90;97.20;;;;;;5015844;28;20053;-76
2021/05/15 10:51:32;;;;;;;2.75;0.90;;;15.10;96.90;;;;;;5032789;28;20081;-81
2021/05/15 10:53:58;;;;;;;5.97;1.02;;;15.30;96.60;;;;;;5035130;28;20021;-81
2021/05/15 10:56:31;;;;;;;5.57;1.55;;;15.60;96.70;;;;;;5031756;28;20103;-82
2021/05/15 10:59:21;;;;;;;4.88;1.05;;;15.80;96.20;;;;;;5033398;28;20476;-78
2021/05/15 11:01:48;;;;;;;5.68;1.13;;;16.10;95.80;;;;;;5017469;28;20037;-79
2021/05/15 11:04:35;;;;;;;3.53;1.00;;;16.20;95.80;;;;;;5033245;28;20110;-81
2021/05/15 11:07:35;;;;;;;8.80;1.40;;;16.40;95.20;;;;;;5031398;28;20502;-79
2021/05/15 11:10:05;;;;;;;4.97;1.10;;;16.40;94.30;;;;;;5026742;28;20087;-81
2021/05/15 11:12:40;;;;;;;4.53;1.20;;;16.40;94.50;;;;;;5031563;28;20033;-80
2021/05/15 11:15:09;;;;;;;2.45;0.90;;;16.50;94.30;;;;;;5031712;28;20498;-80
2021/05/15 11:18:18;;;;;;;2.75;1.10;;;16.70;94.20;;;;;;5031218;28;20060;-78
2021/05/15 11:20:46;;;;;;;3.55;1.30;;;16.90;94.00;;;;;;5031291;28;20069;-80
2021/05/15 11:23:19;;;;;;;7.03;1.45;;;17.20;93.40;;;;;;5031260;28;20033;-80
2021/05/15 11:25:57;;;;;;;4.35;1.10;;;17.30;92.90;;;;;;5014356;28;20391;-81
2021/05/15 11:28:25;;;;;;;5.43;1.45;;;17.30;92.10;;;;;;5031037;28;20456;-81
2021/05/15 11:30:52;;;;;;;3.45;1.40;;;17.40;91.40;;;;;;5014181;28;20067;-79
2021/05/15 11:33:22;;;;;;;8.05;1.35;;;17.60;91.90;;;;;;5031719;28;20030;-81
2021/05/15 11:36:06;;;;;;;4.03;1.00;;;17.80;91.50;;;;;;5031821;28;20025;-81
2021/05/15 11:38:34;;;;;;;3.47;1.08;;;17.80;91.50;;;;;;5030989;28;20491;-81
2021/05/15 11:41:03;;;;;;;3.15;1.17;;;17.80;91.20;;;;;;5030738;28;20046;-81
2021/05/15 11:43:32;;;;;;;11.70;2.00;;;17.80;91.00;;;;;;5029719;28;20136;-80
2021/05/15 11:46:02;;;;;;;6.55;1.08;;;17.80;90.60;;;;;;5030190;28;20029;-80
2021/05/15 11:48:30;;;;;;;11.82;1.48;;;17.80;90.10;;;;;;5030996;28;20030;-80
2021/05/15 11:51:13;;;;;;;11.50;1.42;;;17.60;90.20;;;;;;5011665;28;20030;-82
2021/05/15 11:53:39;;;;;;;5.68;1.08;;;17.30;90.10;;;;;;5014854;28;20494;-83
2021/05/15 11:56:16;;;;;;;5.97;1.20;;;17.20;90.30;;;;;;5029671;28;20034;-83
2021/05/15 11:58:45;;;;;;;7.00;1.30;;;17.20;90.60;;;;;;5030127;28;20351;-81
2021/05/15 12:01:21;;;;;;;4.22;1.08;;;17.20;90.70;;;;;;5030677;28;20021;-81
2021/05/15 12:03:47;;;;;;;6.43;1.08;;;17.50;91.10;;;;;;5031508;28;20018;-80
2021/05/15 12:06:14;;;;;;;3.47;1.30;;;17.80;91.00;;;;;;5012862;28;20048;-79
2021/05/15 12:08:41;;;;;;;4.05;1.30;;;18.10;90.60;;;;;;5032479;28;20022;-80
2021/05/15 12:11:07;;;;;;;10.43;1.20;;;18.20;90.00;;;;;;5030873;28;20025;-79
2021/05/15 12:13:33;;;;;;;3.40;1.20;;;18.40;90.40;;;;;;5029458;28;20021;-83
2021/05/15 12:16:02;;;;;;;4.30;1.30;;;19.10;90.90;;;;;;5029585;28;20080;-81
2021/05/15 12:18:28;;;;;;;7.57;1.80;;;19.60;89.00;;;;;;5029799;28;20060;-80
2021/05/15 12:20:55;;;;;;;8.45;2.30;;;19.70;86.00;;;;;;5012591;28;20029;-81
2021/05/15 12:23:25;;;;;;;8.80;1.65;;;19.60;85.30;;;;;;5012996;28;20176;-80
2021/05/15 12:26:09;;;;;;;8.60;1.80;;;19.60;84.40;;;;;;5028235;28;20502;-78
2021/05/15 12:28:46;;;;;;;8.90;1.30;;;19.60;83.20;;;;;;5001875;28;20180;-80
2021/05/15 12:31:32;;;;;;;6.40;1.25;;;19.50;82.70;;;;;;5012571;28;20534;-81
2021/05/15 12:33:59;;;;;;;4.50;1.33;;;19.40;82.60;;;;;;5009293;28;20030;-79
2021/05/15 12:36:31;;;;;;;6.75;1.52;;;19.50;82.50;;;;;;5016120;28;20037;-81
2021/05/15 12:38:57;;;;;;;10.48;1.30;;;19.30;82.00;;;;;;5030043;28;20052;-80
2021/05/15 12:41:38;;;;;;;8.32;1.50;;;19.30;81.80;;;;;;5015675;28;20033;-79
2021/05/15 12:44:09;;;;;;;9.57;2.03;;;19.40;81.30;;;;;;5049664;28;20070;-86
2021/05/15 12:46:37;;;;;;;10.25;1.90;;;19.50;81.90;;;;;;5016071;28;20517;-80
2021/05/15 12:49:11;;;;;;;6.32;1.83;;;19.80;81.40;;;;;;5031961;28;20084;-79
2021/05/15 12:51:39;;;;;;;5.60;1.35;;;20.20;79.90;;;;;;5012416;28;20052;-83